createdAt,value
2022-11-10T00:01:51.912Z,101514.38
2022-11-10T00:03:53.525Z,101521.50
2022-11-10T00:05:55.833Z,101519.75
2022-11-10T00:07:57.929Z,101519.81
2022-11-10T00:09:59.620Z,101520.78
2022-11-10T00:12:01.044Z,101531.34
2022-11-10T00:14:21.055Z,101529.59
2022-11-10T00:16:40.794Z,101538.41
2022-11-10T00:18:42.211Z,101543.69
2022-11-10T00:20:43.658Z,101541.97
2022-11-10T00:22:45.118Z,101549.88
2022-11-10T00:24:47.063Z,101546.38
2022-11-10T00:26:48.519Z,101551.69
2022-11-10T00:28:49.990Z,101553.47
2022-11-10T00:30:51.639Z,101553.44
2022-11-10T00:32:53.082Z,101548.19
2022-11-10T00:34:54.504Z,101551.66
2022-11-10T00:36:55.945Z,101556.06
2022-11-10T00:38:57.427Z,101558.72
2022-11-10T00:41:02.335Z,101561.34
2022-11-10T00:43:03.743Z,101561.38
2022-11-10T00:45:05.907Z,101557.00
2022-11-10T00:47:07.343Z,101562.25
2022-11-10T00:49:08.831Z,101565.78
2022-11-10T00:51:24.030Z,101564.03
2022-11-10T00:53:25.558Z,101564.97
2022-11-10T00:55:27.019Z,101558.84
2022-11-10T00:57:28.435Z,101562.38
2022-11-10T00:59:29.862Z,101563.25
2022-11-10T01:01:31.498Z,101567.69
2022-11-10T01:03:33.133Z,101568.59
2022-11-10T01:05:38.345Z,101572.13
2022-11-10T01:07:39.810Z,101571.28
2022-11-10T01:09:41.247Z,101574.81
2022-11-10T01:11:42.758Z,101580.09
2022-11-10T01:13:45.042Z,101575.72
2022-11-10T01:15:46.477Z,101586.31
2022-11-10T01:17:48.087Z,101581.91
2022-11-10T01:19:49.491Z,101589.84
2022-11-10T01:21:52.248Z,101597.78
2022-11-10T01:23:53.970Z,101595.16
2022-11-10T01:26:04.716Z,101603.94
2022-11-10T01:28:06.152Z,101605.72
2022-11-10T01:30:08.037Z,101612.75
2022-11-10T01:32:09.504Z,101620.72
2022-11-10T01:34:10.919Z,101619.84
2022-11-10T01:36:12.815Z,101625.09
2022-11-10T01:38:14.239Z,101631.28
2022-11-10T01:40:15.791Z,101624.25
2022-11-10T01:42:24.669Z,101629.50
2022-11-10T01:44:26.027Z,101626.97
2022-11-10T01:46:27.482Z,101625.19
2022-11-10T01:48:59.931Z,101628.75
2022-11-10T01:51:14.482Z,101631.38
2022-11-10T01:53:23.736Z,101630.50
2022-11-10T01:55:26.192Z,101631.41
2022-11-10T01:57:28.275Z,101644.59
2022-11-10T01:59:35.471Z,101640.19
2022-11-10T02:01:36.893Z,101638.47
2022-11-10T02:04:00.183Z,101641.13
2022-11-10T02:06:02.086Z,101643.81
2022-11-10T02:08:05.285Z,101649.94
2022-11-10T02:10:14.392Z,101652.59
2022-11-10T02:12:16.101Z,101656.13
2022-11-10T02:14:17.722Z,101650.84
2022-11-10T02:16:19.394Z,101656.16
2022-11-10T02:18:20.840Z,101656.16
2022-11-10T02:20:22.388Z,101660.56
2022-11-10T02:22:23.845Z,101657.06
2022-11-10T02:24:25.272Z,101671.16
2022-11-10T02:26:30.150Z,101670.28
2022-11-10T02:28:38.334Z,101669.41
2022-11-10T02:30:39.776Z,101661.53
2022-11-10T02:32:41.248Z,101669.47
2022-11-10T02:34:42.922Z,101670.38
2022-11-10T02:36:44.360Z,101675.69
2022-11-10T02:38:45.763Z,101676.56
2022-11-10T02:40:49.234Z,101673.94
2022-11-10T02:42:50.646Z,101680.97
2022-11-10T02:44:52.111Z,101679.25
2022-11-10T02:46:53.579Z,101671.38
2022-11-10T02:48:55.048Z,101673.16
2022-11-10T02:50:56.476Z,101675.78
2022-11-10T02:52:57.889Z,101681.06
2022-11-10T02:54:59.363Z,101688.13
2022-11-10T02:57:02.711Z,101696.03
2022-11-10T02:59:04.862Z,101691.66
2022-11-10T03:01:07.003Z,101688.16
2022-11-10T03:03:08.511Z,101688.19
2022-11-10T03:05:10.430Z,101692.59
2022-11-10T03:07:11.945Z,101680.28
2022-11-10T03:09:13.383Z,101694.34
2022-11-10T03:11:14.801Z,101702.25
2022-11-10T03:13:16.244Z,101702.25
2022-11-10T03:15:17.737Z,101713.69
2022-11-10T03:17:19.255Z,101714.56
2022-11-10T03:19:20.673Z,101719.84
2022-11-10T03:21:22.205Z,101728.66
2022-11-10T03:23:24.616Z,101728.66
2022-11-10T03:25:26.324Z,101733.94
2022-11-10T03:27:27.898Z,101733.91
2022-11-10T03:29:29.383Z,101743.59
2022-11-10T03:31:30.799Z,101741.84
2022-11-10T03:33:32.904Z,101745.34
2022-11-10T03:35:34.417Z,101733.94
2022-11-10T03:37:35.842Z,101736.53
2022-11-10T03:39:37.649Z,101738.28
2022-11-10T03:41:39.062Z,101736.56
2022-11-10T03:43:40.507Z,101734.81
2022-11-10T03:45:44.456Z,101743.63
2022-11-10T03:47:47.828Z,101739.25
2022-11-10T03:49:49.235Z,101740.13
2022-11-10T03:51:50.660Z,101745.41
2022-11-10T03:53:52.116Z,101749.84
2022-11-10T03:55:53.531Z,101760.38
2022-11-10T03:57:54.938Z,101764.75
2022-11-10T03:59:56.376Z,101760.38
2022-11-10T04:01:57.946Z,101763.00
2022-11-10T04:03:59.425Z,101762.13
2022-11-10T04:06:19.373Z,101761.25
2022-11-10T04:08:39.150Z,101770.09
2022-11-10T04:10:40.598Z,101771.84
2022-11-10T04:13:00.665Z,101771.84
2022-11-10T04:15:20.490Z,101774.50
2022-11-10T04:17:21.928Z,101786.81
2022-11-10T04:19:23.525Z,101795.59
2022-11-10T04:21:24.973Z,101795.59
2022-11-10T04:23:34.841Z,101799.09
2022-11-10T04:25:56.226Z,101799.13
2022-11-10T04:27:57.643Z,101800.00
2022-11-10T04:29:59.051Z,101800.00
2022-11-10T04:32:00.505Z,101802.63
2022-11-10T04:34:01.907Z,101807.00
2022-11-10T04:36:04.248Z,101811.41
2022-11-10T04:38:05.684Z,101821.94
2022-11-10T04:40:07.550Z,101821.94
2022-11-10T04:42:09.002Z,101828.97
2022-11-10T04:44:10.420Z,101838.66
2022-11-10T04:46:19.444Z,101847.44
2022-11-10T04:48:20.958Z,101845.69
2022-11-10T04:50:22.417Z,101843.91
2022-11-10T04:52:23.935Z,101853.59
2022-11-10T04:54:25.492Z,101846.56
2022-11-10T04:56:27.586Z,101854.47
2022-11-10T04:58:29.079Z,101858.00
2022-11-10T05:00:30.540Z,101858.88
2022-11-10T05:02:35.615Z,101859.75
2022-11-10T05:04:40.746Z,101857.13
2022-11-10T05:06:42.270Z,101855.38
2022-11-10T05:08:44.451Z,101853.59
2022-11-10T05:10:45.870Z,101845.69
2022-11-10T05:12:47.317Z,101843.94
2022-11-10T05:14:48.741Z,101843.94
2022-11-10T05:16:50.160Z,101843.94
2022-11-10T05:18:54.180Z,101847.47
2022-11-10T05:20:55.640Z,101852.72
2022-11-10T05:23:15.503Z,101845.69
2022-11-10T05:25:17.035Z,101852.72
2022-11-10T05:27:18.498Z,101866.75
2022-11-10T05:29:19.898Z,101861.50
2022-11-10T05:31:21.321Z,101857.09
2022-11-10T05:33:23.121Z,101862.34
2022-11-10T05:35:25.438Z,101874.63
2022-11-10T05:37:26.892Z,101869.34
2022-11-10T05:39:28.316Z,101866.72
2022-11-10T05:41:29.757Z,101864.97
2022-11-10T05:43:31.146Z,101864.06
2022-11-10T05:45:32.569Z,101870.22
2022-11-10T05:47:37.272Z,101871.97
2022-11-10T05:49:38.678Z,101864.06
2022-11-10T05:51:40.093Z,101868.44
2022-11-10T05:53:41.505Z,101873.69
2022-11-10T05:55:43.011Z,101881.59
2022-11-10T05:57:48.818Z,101889.50
2022-11-10T05:59:50.226Z,101886.88
2022-11-10T06:01:51.812Z,101893.88
2022-11-10T06:03:53.264Z,101890.34
2022-11-10T06:05:54.763Z,101897.34
2022-11-10T06:07:56.556Z,101906.13
2022-11-10T06:09:57.969Z,101900.84
2022-11-10T06:11:59.403Z,101908.75
2022-11-10T06:14:00.919Z,101908.75
2022-11-10T06:16:02.351Z,101913.13
2022-11-10T06:18:03.903Z,101918.38
2022-11-10T06:20:05.879Z,101927.16
2022-11-10T06:22:08.026Z,101926.25
2022-11-10T06:24:11.078Z,101939.44
2022-11-10T06:26:12.528Z,101942.94
2022-11-10T06:28:14.960Z,101948.19
2022-11-10T06:30:16.797Z,101949.94
2022-11-10T06:32:18.232Z,101949.03
2022-11-10T06:34:19.640Z,101959.56
2022-11-10T06:36:21.667Z,101958.69
2022-11-10T06:38:23.117Z,101956.91
2022-11-10T06:40:24.560Z,101966.59
2022-11-10T06:42:25.963Z,101976.25
2022-11-10T06:44:27.529Z,101972.72
2022-11-10T06:46:29.057Z,101974.47
2022-11-10T06:48:30.491Z,101983.25
2022-11-10T06:50:32.334Z,101978.84
2022-11-10T06:52:33.824Z,101981.47
2022-11-10T06:54:35.308Z,101978.81
2022-11-10T06:56:36.839Z,101987.59
2022-11-10T06:58:38.250Z,101992.88
2022-11-10T07:00:40.351Z,102001.66
2022-11-10T07:02:41.914Z,101998.13
2022-11-10T07:04:43.344Z,102018.34
2022-11-10T07:06:47.723Z,102012.16
2022-11-10T07:08:49.371Z,102013.03
2022-11-10T07:10:53.178Z,102007.72
2022-11-10T07:12:59.219Z,102016.47
2022-11-10T07:15:00.653Z,102013.84
2022-11-10T07:17:02.102Z,102013.81
2022-11-10T07:19:03.748Z,102022.63
2022-11-10T07:21:06.408Z,102033.16
2022-11-10T07:23:08.593Z,102035.81
2022-11-10T07:25:11.328Z,102044.59
2022-11-10T07:27:12.753Z,102061.31
2022-11-10T07:29:14.187Z,102058.63
2022-11-10T07:31:15.601Z,102066.56
2022-11-10T07:33:17.036Z,102077.97
2022-11-10T07:35:18.469Z,102077.09
2022-11-10T07:37:19.866Z,102083.22
2022-11-10T07:39:21.313Z,102085.81
2022-11-10T07:41:22.845Z,102092.84
2022-11-10T07:43:25.732Z,102091.97
2022-11-10T07:45:28.246Z,102098.13
2022-11-10T07:47:29.682Z,102110.41
2022-11-10T07:49:31.097Z,102114.81
2022-11-10T07:51:32.512Z,102121.81
2022-11-10T07:53:34.316Z,102125.34
2022-11-10T07:55:38.264Z,102123.56
2022-11-10T07:57:39.965Z,102127.97
2022-11-10T07:59:41.359Z,102134.13
2022-11-10T08:01:42.864Z,102127.94
2022-11-10T08:03:44.344Z,102124.41
2022-11-10T08:05:45.840Z,102118.25
2022-11-10T08:07:47.332Z,102114.72
2022-11-10T08:09:48.831Z,102114.72
2022-11-10T08:11:50.253Z,102115.59
2022-11-10T08:13:51.660Z,102111.19
2022-11-10T08:15:53.093Z,102108.53
2022-11-10T08:18:00.111Z,102113.75
2022-11-10T08:20:01.792Z,102125.19
2022-11-10T08:22:03.204Z,102118.97
2022-11-10T08:24:04.750Z,102122.44
2022-11-10T08:26:06.178Z,102124.22
2022-11-10T08:28:18.004Z,102121.56
2022-11-10T08:30:19.427Z,102131.22
2022-11-10T08:32:21.239Z,102141.78
2022-11-10T08:34:23.036Z,102140.88
2022-11-10T08:36:24.635Z,102143.50
2022-11-10T08:38:26.060Z,102136.44
2022-11-10T08:40:27.827Z,102136.44
2022-11-10T08:42:29.294Z,102149.66
2022-11-10T08:44:30.697Z,102151.41
2022-11-10T08:46:32.126Z,102142.59
2022-11-10T08:48:33.962Z,102147.88
2022-11-10T08:50:35.882Z,102141.69
2022-11-10T08:52:37.446Z,102148.72
2022-11-10T08:54:38.850Z,102146.03
2022-11-10T08:56:40.291Z,102150.31
2022-11-10T08:58:48.782Z,102157.31
2022-11-10T09:00:52.465Z,102168.72
2022-11-10T09:02:55.478Z,102165.13
2022-11-10T09:04:56.959Z,102172.16
2022-11-10T09:06:58.416Z,102172.13
2022-11-10T09:08:59.847Z,102174.75
2022-11-10T09:11:04.633Z,102163.28
2022-11-10T09:13:06.786Z,102171.19
2022-11-10T09:15:09.911Z,102166.72
2022-11-10T09:17:11.348Z,102168.44
2022-11-10T09:19:18.467Z,102161.34
2022-11-10T09:21:21.223Z,102167.50
2022-11-10T09:23:24.980Z,102164.78
2022-11-10T09:25:26.842Z,102163.88
2022-11-10T09:27:28.299Z,102164.72
2022-11-10T09:29:29.692Z,102176.16
2022-11-10T09:31:31.163Z,102185.84
2022-11-10T09:33:32.562Z,102197.31
2022-11-10T09:35:34.273Z,102191.09
2022-11-10T09:37:40.053Z,102191.03
2022-11-10T09:39:41.558Z,102191.81
2022-11-10T09:41:44.606Z,102191.69
2022-11-10T09:44:04.666Z,102199.63
2022-11-10T09:46:16.226Z,102206.66
2022-11-10T09:48:25.770Z,102209.28
2022-11-10T09:50:41.979Z,102208.41
2022-11-10T09:52:45.532Z,102211.94
2022-11-10T09:54:56.716Z,102210.06
2022-11-10T09:57:02.409Z,102208.22
2022-11-10T09:59:15.754Z,102207.28
2022-11-10T10:01:32.279Z,102209.84
2022-11-10T10:03:37.337Z,102208.81
2022-11-10T10:05:52.321Z,102209.63
2022-11-10T10:08:12.564Z,102220.94
2022-11-10T10:10:32.145Z,102219.78
2022-11-10T10:12:39.313Z,102212.66
2022-11-10T10:15:05.139Z,102215.97
2022-11-10T10:17:15.460Z,102218.47
2022-11-10T10:19:49.434Z,102219.31
2022-11-10T10:22:04.666Z,102220.97
2022-11-10T10:24:19.835Z,102227.97
2022-11-10T10:26:27.552Z,102229.81
2022-11-10T10:28:35.408Z,102235.13
2022-11-10T10:30:36.854Z,102235.16
2022-11-10T10:32:38.262Z,102243.16
2022-11-10T10:36:44.392Z,102248.47
2022-11-10T10:38:49.851Z,102255.53
2022-11-10T10:40:52.753Z,102252.00
2022-11-10T10:42:54.283Z,102255.34
2022-11-10T10:45:21.918Z,102263.91
2022-11-10T10:47:36.381Z,102265.56
2022-11-10T10:49:37.841Z,102261.25
2022-11-10T10:51:39.326Z,102250.72
2022-11-10T10:53:47.878Z,102262.16
2022-11-10T10:55:54.811Z,102260.97
2022-11-10T10:58:02.832Z,102259.00
2022-11-10T11:00:30.765Z,102257.88
2022-11-10T11:02:32.488Z,102261.91
2022-11-10T11:04:36.475Z,102264.19
2022-11-10T11:06:37.960Z,102260.97
2022-11-10T11:08:39.578Z,102262.81
2022-11-10T11:10:45.271Z,102258.56
2022-11-10T11:12:46.831Z,102263.97
2022-11-10T11:14:48.400Z,102265.94
2022-11-10T11:16:51.145Z,102266.81
2022-11-10T11:18:52.578Z,102266.16
2022-11-10T11:21:13.066Z,102266.34
2022-11-10T11:23:51.896Z,102275.31
2022-11-10T11:25:57.721Z,102279.63
2022-11-10T11:28:26.743Z,102280.75
2022-11-10T11:30:41.925Z,102284.41
2022-11-10T11:33:04.939Z,102296.72
2022-11-10T11:35:12.389Z,102282.63
2022-11-10T11:37:32.849Z,102297.22
2022-11-10T11:39:34.212Z,102300.03
2022-11-10T11:41:46.627Z,102298.00
2022-11-10T11:44:25.586Z,102299.22
2022-11-10T11:46:33.090Z,102309.16
2022-11-10T11:48:52.857Z,102305.97
2022-11-10T11:50:57.965Z,102310.63
2022-11-10T11:53:14.234Z,102308.97
2022-11-10T11:55:26.843Z,102316.13
2022-11-10T11:57:45.389Z,102310.00
2022-11-10T11:59:52.692Z,102312.06
2022-11-10T12:02:18.350Z,102303.38
2022-11-10T12:04:22.667Z,102320.22
2022-11-10T12:06:47.770Z,102310.47
2022-11-10T12:09:01.869Z,102310.50
2022-11-10T12:11:31.570Z,102310.50
2022-11-10T12:13:51.369Z,102326.56
2022-11-10T12:15:59.444Z,102321.16
2022-11-10T12:18:03.814Z,102320.41
2022-11-10T12:20:26.055Z,102325.84
2022-11-10T12:22:41.072Z,102331.25
2022-11-10T12:24:54.826Z,102333.97
2022-11-10T12:27:24.702Z,102330.44
2022-11-10T12:29:41.154Z,102331.25
2022-11-10T12:31:46.060Z,102332.22
2022-11-10T12:33:57.139Z,102333.16
2022-11-10T12:36:03.238Z,102332.25
2022-11-10T12:38:11.889Z,102337.56
2022-11-10T12:40:19.322Z,102341.13
2022-11-10T12:42:24.248Z,102339.47
2022-11-10T12:44:33.741Z,102341.31
2022-11-10T12:46:35.203Z,102349.31
2022-11-10T12:48:53.524Z,102351.91
2022-11-10T12:51:12.507Z,102352.81
2022-11-10T12:53:24.907Z,102360.75
2022-11-10T12:55:36.697Z,102359.88
2022-11-10T12:57:38.428Z,102360.78
2022-11-10T12:59:48.724Z,102374.06
2022-11-10T13:02:01.474Z,102371.41
2022-11-10T13:04:03.008Z,102382.91
2022-11-10T13:06:07.448Z,102387.28
2022-11-10T13:08:29.575Z,102385.50
2022-11-10T13:10:31.246Z,102382.84
2022-11-10T13:12:33.060Z,102385.41
2022-11-10T13:14:34.643Z,102380.09
2022-11-10T13:16:39.167Z,102379.19
2022-11-10T13:18:40.554Z,102380.97
2022-11-10T13:20:45.970Z,102382.72
2022-11-10T13:22:47.420Z,102381.88
2022-11-10T13:24:48.911Z,102388.06
2022-11-10T13:26:54.212Z,102393.34
2022-11-10T13:28:57.790Z,102388.06
2022-11-10T13:30:59.579Z,102396.06
2022-11-10T13:33:23.015Z,102392.53
2022-11-10T13:35:27.940Z,102388.16
2022-11-10T13:37:29.332Z,102388.22
2022-11-10T13:39:34.072Z,102383.81
2022-11-10T13:41:48.992Z,102387.31
2022-11-10T13:43:53.337Z,102382.94
2022-11-10T13:46:05.584Z,102383.88
2022-11-10T13:48:12.960Z,102389.19
2022-11-10T13:50:28.697Z,102386.53
2022-11-10T13:52:39.403Z,102391.88
2022-11-10T13:55:10.492Z,102390.13
2022-11-10T13:57:23.744Z,102383.06
2022-11-10T13:59:28.525Z,102383.94
2022-11-10T14:01:30.513Z,102392.81
2022-11-10T14:03:47.643Z,102393.66
2022-11-10T14:06:04.237Z,102390.13
2022-11-10T14:08:05.624Z,102392.81
2022-11-10T14:10:23.625Z,102389.25
2022-11-10T14:12:30.781Z,102384.81
2022-11-10T14:14:51.369Z,102384.84
2022-11-10T14:16:54.393Z,102383.06
2022-11-10T14:19:04.985Z,102384.81
2022-11-10T14:21:11.331Z,102386.59
2022-11-10T14:23:22.761Z,102388.34
2022-11-10T14:25:27.771Z,102392.75
2022-11-10T14:27:33.549Z,102395.41
2022-11-10T14:29:40.608Z,102394.47
2022-11-10T14:31:44.033Z,102398.88
2022-11-10T14:33:57.158Z,102396.22
2022-11-10T14:36:01.654Z,102397.13
2022-11-10T14:38:06.126Z,102388.28
2022-11-10T14:40:15.265Z,102393.59
2022-11-10T14:42:22.541Z,102400.69
2022-11-10T14:44:26.627Z,102400.69
2022-11-10T14:46:28.466Z,102406.00
2022-11-10T14:48:32.742Z,102415.72
2022-11-10T14:50:35.449Z,102414.84
2022-11-10T14:52:41.380Z,102412.22
2022-11-10T14:54:46.497Z,102413.13
2022-11-10T14:56:48.364Z,102419.44
2022-11-10T14:58:51.165Z,102412.34
2022-11-10T15:00:53.852Z,102407.94
2022-11-10T15:02:57.491Z,102416.78
2022-11-10T15:04:59.428Z,102422.09
2022-11-10T15:07:01.046Z,102423.94
2022-11-10T15:09:14.487Z,102428.38
2022-11-10T15:11:54.406Z,102423.13
2022-11-10T15:13:55.840Z,102424.94
2022-11-10T15:16:22.163Z,102432.03
2022-11-10T15:18:29.293Z,102435.59
2022-11-10T15:20:30.782Z,102431.16
2022-11-10T15:22:36.368Z,102434.69
2022-11-10T15:24:42.002Z,102435.59
2022-11-10T15:26:43.616Z,102441.78
2022-11-10T15:28:46.895Z,102444.44
2022-11-10T15:30:57.689Z,102442.66
2022-11-10T15:33:02.207Z,102451.50
2022-11-10T15:35:29.050Z,102459.53
2022-11-10T15:37:31.861Z,102466.59
2022-11-10T15:39:33.414Z,102464.81
2022-11-10T15:41:35.197Z,102463.97
2022-11-10T15:43:36.772Z,102480.81
2022-11-10T15:45:38.503Z,102485.22
2022-11-10T15:47:41.182Z,102489.66
2022-11-10T15:49:43.803Z,102486.09
2022-11-10T15:51:45.280Z,102492.34
2022-11-10T15:53:48.892Z,102489.69
2022-11-10T15:55:50.355Z,102487.94
2022-11-10T15:57:51.827Z,102497.66
2022-11-10T15:59:53.433Z,102499.44
2022-11-10T16:01:55.186Z,102488.84
2022-11-10T16:03:56.828Z,102477.34
2022-11-10T16:05:58.442Z,102480.91
2022-11-10T16:07:59.895Z,102477.38
2022-11-10T16:10:01.485Z,102475.63
2022-11-10T16:12:03.204Z,102472.13
2022-11-10T16:14:05.399Z,102484.56
2022-11-10T16:16:07.221Z,102503.16
2022-11-10T16:18:17.530Z,102504.97
2022-11-10T16:20:18.994Z,102508.53
2022-11-10T16:22:20.412Z,102501.44
2022-11-10T16:24:21.861Z,102517.41
2022-11-10T16:26:26.234Z,102510.41
2022-11-10T16:28:28.018Z,102506.94
2022-11-10T16:30:30.305Z,102498.09
2022-11-10T16:32:31.808Z,102496.34
2022-11-10T16:34:33.321Z,102505.19
2022-11-10T16:36:34.993Z,102507.88
2022-11-10T16:38:36.435Z,102509.66
2022-11-10T16:40:37.901Z,102507.00
2022-11-10T16:42:39.334Z,102511.47
2022-11-10T16:44:42.709Z,102523.84
2022-11-10T16:46:47.554Z,102528.28
2022-11-10T16:48:51.105Z,102529.19
2022-11-10T16:50:54.284Z,102531.84
2022-11-10T16:52:56.558Z,102523.03
2022-11-10T16:54:58.019Z,102522.16
2022-11-10T16:56:59.522Z,102518.63
2022-11-10T16:59:01.056Z,102515.97
2022-11-10T17:01:02.667Z,102520.41
2022-11-10T17:03:15.184Z,102527.50
2022-11-10T17:05:16.865Z,102510.72
2022-11-10T17:07:24.351Z,102515.13
2022-11-10T17:09:26.660Z,102519.53
2022-11-10T17:11:28.187Z,102512.47
2022-11-10T17:13:29.622Z,102515.09
2022-11-10T17:15:32.252Z,102513.31
2022-11-10T17:17:35.726Z,102517.75
2022-11-10T17:19:37.268Z,102519.50
2022-11-10T17:21:40.288Z,102515.94
2022-11-10T17:23:42.472Z,102527.44
2022-11-10T17:25:44.499Z,102520.38
2022-11-10T17:27:45.971Z,102526.59
2022-11-10T17:29:47.526Z,102534.53
2022-11-10T17:31:50.458Z,102526.59
2022-11-10T17:33:52.165Z,102532.75
2022-11-10T17:35:54.341Z,102522.16
2022-11-10T17:37:58.143Z,102530.13
2022-11-10T17:40:07.222Z,102525.69
2022-11-10T17:42:13.658Z,102530.09
2022-11-10T17:44:16.666Z,102524.78
2022-11-10T17:46:18.124Z,102516.81
2022-11-10T17:48:19.621Z,102512.38
2022-11-10T17:50:23.113Z,102521.22
2022-11-10T17:52:24.575Z,102520.34
2022-11-10T17:54:25.988Z,102529.22
2022-11-10T17:56:27.431Z,102530.97
2022-11-10T17:58:30.510Z,102536.31
2022-11-10T18:00:31.945Z,102542.50
2022-11-10T18:02:33.372Z,102539.84
2022-11-10T18:04:34.781Z,102547.81
2022-11-10T18:06:36.557Z,102543.41
2022-11-10T18:08:38.514Z,102544.28
2022-11-10T18:10:51.908Z,102546.94
2022-11-10T18:12:53.535Z,102554.94
2022-11-10T18:14:55.002Z,102558.53
2022-11-10T18:16:56.493Z,102566.47
2022-11-10T18:18:58.716Z,102568.25
2022-11-10T18:21:00.184Z,102560.31
2022-11-10T18:23:01.672Z,102547.94
2022-11-10T18:25:03.740Z,102549.75
2022-11-10T18:27:05.175Z,102554.19
2022-11-10T18:29:06.630Z,102557.75
2022-11-10T18:31:12.647Z,102566.63
2022-11-10T18:33:14.101Z,102560.47
2022-11-10T18:35:15.592Z,102564.91
2022-11-10T18:37:17.802Z,102560.50
2022-11-10T18:39:19.236Z,102561.47
2022-11-10T18:41:39.327Z,102553.56
2022-11-10T18:43:40.731Z,102555.38
2022-11-10T18:45:42.301Z,102553.66
2022-11-10T18:47:43.713Z,102555.47
2022-11-10T18:49:45.201Z,102552.00
2022-11-10T18:51:46.708Z,102544.97
2022-11-10T18:53:48.204Z,102544.16
2022-11-10T18:55:56.310Z,102545.97
2022-11-10T18:57:57.765Z,102557.47
2022-11-10T18:59:59.490Z,102560.19
2022-11-10T19:02:01.000Z,102572.56
2022-11-10T19:04:02.499Z,102574.31
2022-11-10T19:06:04.842Z,102576.09
2022-11-10T19:08:07.991Z,102577.88
2022-11-10T19:10:09.552Z,102573.47
2022-11-10T19:12:11.991Z,102576.16
2022-11-10T19:14:13.450Z,102575.28
2022-11-10T19:16:17.634Z,102575.31
2022-11-10T19:18:19.092Z,102566.50
2022-11-10T19:20:20.537Z,102565.66
2022-11-10T19:22:22.257Z,102553.31
2022-11-10T19:24:28.066Z,102556.88
2022-11-10T19:26:29.905Z,102558.66
2022-11-10T19:28:31.473Z,102558.69
2022-11-10T19:30:32.926Z,102556.94
2022-11-10T19:32:34.435Z,102557.84
2022-11-10T19:34:36.058Z,102559.59
2022-11-10T19:36:37.944Z,102565.81
2022-11-10T19:38:40.497Z,102556.13
2022-11-10T19:40:42.596Z,102562.31
2022-11-10T19:42:44.124Z,102559.66
2022-11-10T19:44:45.606Z,102573.78
2022-11-10T19:46:47.046Z,102566.75
2022-11-10T19:48:48.814Z,102573.84
2022-11-10T19:50:54.530Z,102577.38
2022-11-10T19:52:55.983Z,102584.44
2022-11-10T19:54:57.456Z,102588.88
2022-11-10T19:56:59.086Z,102593.28
2022-11-10T19:59:00.582Z,102600.34
2022-11-10T20:01:02.195Z,102581.81
2022-11-10T20:03:03.745Z,102588.91
2022-11-10T20:05:16.121Z,102597.75
2022-11-10T20:07:36.221Z,102598.63
2022-11-10T20:09:37.667Z,102598.63
2022-11-10T20:11:39.105Z,102603.94
2022-11-10T20:13:41.070Z,102612.78
2022-11-10T20:15:43.589Z,102618.94
2022-11-10T20:17:45.067Z,102612.78
2022-11-10T20:19:46.503Z,102622.47
2022-11-10T20:21:47.997Z,102614.56
2022-11-10T20:23:54.034Z,102617.19
2022-11-10T20:26:14.074Z,102620.72
2022-11-10T20:28:15.507Z,102626.91
2022-11-10T20:30:22.448Z,102628.66
2022-11-10T20:32:26.410Z,102635.69
2022-11-10T20:34:27.854Z,102631.31
2022-11-10T20:36:30.804Z,102639.22
2022-11-10T20:38:32.323Z,102632.19
2022-11-10T20:40:48.898Z,102634.84
2022-11-10T20:42:50.529Z,102636.59
2022-11-10T20:44:51.986Z,102632.19
2022-11-10T20:46:54.778Z,102623.38
2022-11-10T20:48:56.491Z,102626.03
2022-11-10T20:50:57.945Z,102629.56
2022-11-10T20:52:59.457Z,102632.22
2022-11-10T20:55:05.378Z,102623.41
2022-11-10T20:57:06.872Z,102613.72
2022-11-10T20:59:08.355Z,102614.59
2022-11-10T21:01:15.146Z,102613.75
2022-11-10T21:03:16.668Z,102611.97
2022-11-10T21:05:18.130Z,102613.75
2022-11-10T21:07:19.571Z,102629.63
2022-11-10T21:09:21.107Z,102627.84
2022-11-10T21:11:41.393Z,102634.03
2022-11-10T21:13:42.934Z,102633.16
2022-11-10T21:15:50.023Z,102641.97
2022-11-10T21:17:51.497Z,102644.63
2022-11-10T21:19:55.046Z,102644.63
2022-11-10T21:21:56.515Z,102649.91
2022-11-10T21:23:57.967Z,102656.97
2022-11-10T21:26:01.123Z,102651.69
2022-11-10T21:28:02.880Z,102656.97
2022-11-10T21:30:05.017Z,102654.34
2022-11-10T21:32:08.575Z,102650.81
2022-11-10T21:34:10.081Z,102656.09
2022-11-10T21:36:11.629Z,102657.00
2022-11-10T21:38:14.318Z,102661.41
2022-11-10T21:40:16.157Z,102664.94
2022-11-10T21:42:20.728Z,102662.28
2022-11-10T21:44:22.181Z,102664.91
2022-11-10T21:46:23.851Z,102672.88
2022-11-10T21:48:25.266Z,102667.56
2022-11-10T21:50:26.773Z,102679.00
2022-11-10T21:52:34.640Z,102686.94
2022-11-10T21:54:36.133Z,102683.41
2022-11-10T21:56:37.813Z,102693.13
2022-11-10T21:58:39.599Z,102694.03
2022-11-10T22:00:41.040Z,102701.03
2022-11-10T22:02:42.563Z,102705.44
2022-11-10T22:04:44.070Z,102703.69
2022-11-10T22:07:04.226Z,102705.44
2022-11-10T22:09:05.721Z,102712.50
2022-11-10T22:11:31.904Z,102703.69
2022-11-10T22:13:51.679Z,102696.63
2022-11-10T22:16:11.645Z,102694.03
2022-11-10T22:18:34.082Z,102698.44
2022-11-10T22:20:35.522Z,102699.28
2022-11-10T22:22:36.977Z,102694.91
2022-11-10T22:24:38.500Z,102689.59
2022-11-10T22:26:39.929Z,102695.75
2022-11-10T22:28:41.862Z,102692.22
2022-11-10T22:30:43.303Z,102696.63
2022-11-10T22:32:44.716Z,102695.75
2022-11-10T22:34:46.143Z,102697.53
2022-11-10T22:36:50.055Z,102703.69
2022-11-10T22:38:51.497Z,102701.06
2022-11-10T22:41:11.597Z,102703.69
2022-11-10T22:43:38.929Z,102701.94
2022-11-10T22:45:44.728Z,102695.78
2022-11-10T22:48:04.319Z,102695.78
2022-11-10T22:50:06.309Z,102691.38
2022-11-10T22:52:07.741Z,102692.25
2022-11-10T22:54:11.708Z,102691.38
2022-11-10T22:56:13.433Z,102686.09
2022-11-10T22:58:14.875Z,102698.44
2022-11-10T23:00:16.879Z,102697.56
2022-11-10T23:02:18.314Z,102702.84
2022-11-10T23:04:19.824Z,102703.72
2022-11-10T23:06:21.277Z,102711.66
2022-11-10T23:08:22.739Z,102704.59
2022-11-10T23:10:24.185Z,102704.59
2022-11-10T23:12:25.595Z,102708.13
2022-11-10T23:14:27.037Z,102703.72
2022-11-10T23:16:32.045Z,102709.00
2022-11-10T23:18:33.652Z,102707.25
2022-11-10T23:20:35.093Z,102710.75
2022-11-10T23:22:36.571Z,102716.94
2022-11-10T23:24:38.099Z,102706.38
2022-11-10T23:26:39.569Z,102712.53
2022-11-10T23:28:41.210Z,102716.94
2022-11-10T23:30:42.656Z,102716.94
2022-11-10T23:32:44.146Z,102715.16
2022-11-10T23:34:45.786Z,102725.72
2022-11-10T23:36:47.310Z,102730.13
2022-11-10T23:38:48.899Z,102727.47
2022-11-10T23:40:55.716Z,102737.16
2022-11-10T23:42:57.162Z,102742.44
2022-11-10T23:44:58.567Z,102745.97
2022-11-10T23:47:00.059Z,102732.75